Time;durP1;ratioP1;P1;durP2;ratioP2;P2;SDS_P1;SDS_P2;PMS_P1;PMS_P2;Temp;Humidity;BMP_temperature;BMP_pressure;BME280_temperature;BME280_humidity;BME280_pressure;Samples;Min_cycle;Max_cycle;Signal;HPM_P1;HPM_P2
2023/07/29 00:00:52;;;;;;;5.65;3.22;;;18.50;99.90;;;;;;4160200;28;20076;-60
2023/07/29 00:02:53;;;;;;;6.30;3.00;;;18.40;99.90;;;;;;4160935;28;20041;-63
2023/07/29 00:04:54;;;;;;;3.13;2.60;;;18.40;99.90;;;;;;4158563;28;20034;-61
2023/07/29 00:06:55;;;;;;;2.40;2.00;;;18.30;99.90;;;;;;4160938;28;20037;-59
2023/07/29 00:08:56;;;;;;;4.90;2.40;;;18.20;99.90;;;;;;4159792;28;20080;-62
2023/07/29 00:10:57;;;;;;;6.05;2.45;;;18.10;99.90;;;;;;4161406;28;20115;-58
2023/07/29 00:12:59;;;;;;;5.35;2.70;;;18.00;99.90;;;;;;4159798;28;20095;-61
2023/07/29 00:15:00;;;;;;;7.43;2.50;;;18.00;99.90;;;;;;4161239;28;20060;-59
2023/07/29 00:17:01;;;;;;;7.25;2.10;;;18.00;99.90;;;;;;4159616;28;20022;-61
2023/07/29 00:19:03;;;;;;;4.07;2.25;;;17.90;99.90;;;;;;4160905;28;20440;-61
2023/07/29 00:21:04;;;;;;;6.38;3.03;;;17.90;99.90;;;;;;4163155;28;20111;-60
2023/07/29 00:23:05;;;;;;;5.10;2.47;;;17.90;99.90;;;;;;4164062;28;20045;-59
2023/07/29 00:25:07;;;;;;;5.03;3.22;;;17.90;99.90;;;;;;4163840;28;20535;-60
2023/07/29 00:27:08;;;;;;;5.57;2.88;;;17.80;99.90;;;;;;4161869;28;20378;-58
2023/07/29 00:29:09;;;;;;;7.75;4.45;;;17.80;99.90;;;;;;4163915;28;20041;-61
2023/07/29 00:31:10;;;;;;;6.22;4.20;;;17.70;99.90;;;;;;4163330;28;20041;-60
2023/07/29 00:33:11;;;;;;;9.85;4.93;;;17.60;99.90;;;;;;4164295;28;20095;-60
2023/07/29 00:35:13;;;;;;;9.45;4.78;;;17.60;99.90;;;;;;4163101;28;20064;-59
2023/07/29 00:37:14;;;;;;;11.25;5.03;;;17.40;99.90;;;;;;4164545;28;20424;-58
2023/07/29 00:39:15;;;;;;;9.88;4.22;;;17.40;99.90;;;;;;4163114;28;20659;-59
2023/07/29 00:41:16;;;;;;;7.25;4.85;;;17.30;99.90;;;;;;4164326;28;20092;-60
2023/07/29 00:43:17;;;;;;;12.20;5.30;;;17.20;99.90;;;;;;4162838;28;20087;-60
2023/07/29 00:45:19;;;;;;;7.20;4.55;;;17.20;99.90;;;;;;4163846;28;20140;-61
2023/07/29 00:47:23;;;;;;;7.57;3.67;;;17.10;99.90;;;;;;4162945;28;20038;-56
2023/07/29 00:49:24;;;;;;;9.18;4.90;;;17.10;99.90;;;;;;4163868;28;20535;-60
2023/07/29 00:51:25;;;;;;;10.15;4.72;;;17.00;99.90;;;;;;4163239;28;20555;-60
2023/07/29 00:53:26;;;;;;;8.40;4.25;;;17.00;99.90;;;;;;4162958;28;20056;-59
2023/07/29 00:55:28;;;;;;;8.55;4.43;;;17.00;99.90;;;;;;4162936;28;20057;-61
2023/07/29 00:57:30;;;;;;;8.60;4.43;;;17.00;99.90;;;;;;4163263;28;20045;-61
2023/07/29 00:59:31;;;;;;;9.68;4.57;;;17.00;99.90;;;;;;4162917;28;20485;-60
2023/07/29 01:01:33;;;;;;;7.93;4.18;;;17.00;99.90;;;;;;4162852;28;20099;-61
2023/07/29 01:03:35;;;;;;;8.65;4.20;;;17.00;99.90;;;;;;4163629;28;20493;-60
2023/07/29 01:06:11;;;;;;;9.50;4.85;;;17.00;99.90;;;;;;4162907;28;20448;-60
2023/07/29 01:08:26;;;;;;;7.78;4.53;;;17.00;99.90;;;;;;4162911;28;20095;-60
2023/07/29 01:10:31;;;;;;;12.55;4.57;;;17.00;99.90;;;;;;4163249;28;20034;-64
2023/07/29 01:12:54;;;;;;;5.93;4.13;;;17.00;99.90;;;;;;4163518;28;20091;-61
2023/07/29 01:15:13;;;;;;;7.70;4.82;;;17.00;99.90;;;;;;4163114;28;20095;-62
2023/07/29 01:17:28;;;;;;;7.55;4.85;;;17.00;99.90;;;;;;4162660;28;20037;-61
2023/07/29 01:20:06;;;;;;;8.10;4.53;;;17.00;99.90;;;;;;4163250;28;20045;-60
2023/07/29 01:22:08;;;;;;;10.07;4.70;;;17.00;99.90;;;;;;4162341;28;20411;-62
2023/07/29 01:24:09;;;;;;;10.15;4.80;;;17.00;99.90;;;;;;4163693;28;20049;-65
2023/07/29 01:26:11;;;;;;;8.38;4.25;;;17.00;99.90;;;;;;4162169;28;20421;-65
2023/07/29 01:28:12;;;;;;;7.32;4.50;;;16.90;99.90;;;;;;4163139;28;20048;-60
2023/07/29 01:30:13;;;;;;;11.10;4.60;;;17.00;99.90;;;;;;4162499;28;20463;-59
2023/07/29 01:32:38;;;;;;;7.68;5.03;;;17.00;99.90;;;;;;4161590;28;20095;-60
2023/07/29 01:34:46;;;;;;;9.50;4.45;;;17.10;99.90;;;;;;4162424;28;20100;-60
2023/07/29 01:36:50;;;;;;;7.53;4.55;;;17.10;99.90;;;;;;4163193;28;20428;-60
2023/07/29 01:38:52;;;;;;;6.45;4.35;;;17.00;99.90;;;;;;4162780;28;20095;-58
2023/07/29 01:40:54;;;;;;;7.00;3.63;;;16.90;99.90;;;;;;4163128;28;20072;-60
2023/07/29 01:42:55;;;;;;;10.15;4.45;;;16.90;99.90;;;;;;4161144;28;20059;-62
2023/07/29 01:44:57;;;;;;;9.15;3.60;;;17.00;99.90;;;;;;4162209;28;20033;-61
2023/07/29 01:46:59;;;;;;;7.80;3.55;;;17.00;99.90;;;;;;4162669;28;20033;-62
2023/07/29 01:49:01;;;;;;;6.78;3.65;;;17.10;99.90;;;;;;4161996;28;20087;-59
2023/07/29 01:51:02;;;;;;;6.80;3.67;;;17.10;99.90;;;;;;4162945;28;20417;-64
2023/07/29 01:53:03;;;;;;;6.25;3.55;;;17.20;99.90;;;;;;4161946;28;20366;-62
2023/07/29 01:55:05;;;;;;;5.68;3.40;;;17.20;99.90;;;;;;4162876;28;20033;-61
2023/07/29 01:57:06;;;;;;;7.07;3.47;;;17.20;99.90;;;;;;4161673;28;20037;-64
2023/07/29 01:59:07;;;;;;;10.60;4.28;;;17.20;99.90;;;;;;4163174;28;20087;-59
2023/07/29 02:01:08;;;;;;;4.70;3.40;;;17.20;99.90;;;;;;4162035;28;20115;-62
2023/07/29 02:03:09;;;;;;;8.43;4.18;;;17.20;99.90;;;;;;4162714;28;20045;-60
2023/07/29 02:05:10;;;;;;;5.10;3.70;;;17.10;99.90;;;;;;4161746;28;20037;-62
2023/07/29 02:07:11;;;;;;;11.40;4.30;;;17.00;99.90;;;;;;4162730;28;20152;-60
2023/07/29 02:09:12;;;;;;;9.38;3.92;;;17.00;99.90;;;;;;4161928;28;20026;-63
2023/07/29 02:11:13;;;;;;;7.20;4.32;;;16.90;99.90;;;;;;4162152;28;20038;-60
2023/07/29 02:13:15;;;;;;;6.38;3.95;;;16.90;99.90;;;;;;4162444;28;20083;-66
2023/07/29 02:15:16;;;;;;;6.38;3.88;;;16.90;99.90;;;;;;4161933;28;20087;-61
2023/07/29 02:17:17;;;;;;;6.03;4.35;;;16.90;99.90;;;;;;4162844;28;20080;-63
2023/07/29 02:19:19;;;;;;;8.18;4.45;;;17.00;99.90;;;;;;4161652;28;20801;-62
2023/07/29 02:21:20;;;;;;;8.60;5.15;;;17.00;99.90;;;;;;4162612;28;20045;-64
2023/07/29 02:23:21;;;;;;;6.63;4.43;;;17.00;99.90;;;;;;4161250;28;20148;-67
2023/07/29 02:25:22;;;;;;;9.73;4.47;;;17.00;99.90;;;;;;4162673;28;20383;-60
2023/07/29 02:27:26;;;;;;;8.15;4.60;;;17.00;99.90;;;;;;4161240;28;20045;-65
2023/07/29 02:29:28;;;;;;;13.05;5.05;;;17.10;99.90;;;;;;4162496;28;20108;-60
2023/07/29 02:31:29;;;;;;;8.63;4.18;;;17.00;99.90;;;;;;4161253;28;20049;-64
2023/07/29 02:33:30;;;;;;;6.60;4.40;;;17.00;99.90;;;;;;4162212;28;20034;-61
2023/07/29 02:35:31;;;;;;;9.57;4.05;;;17.00;99.90;;;;;;4161486;28;20029;-60
2023/07/29 02:37:32;;;;;;;7.72;3.58;;;17.00;99.90;;;;;;4162064;28;20103;-58
2023/07/29 02:39:33;;;;;;;7.50;3.38;;;17.00;99.90;;;;;;4161173;28;20071;-60
2023/07/29 02:41:34;;;;;;;5.32;3.20;;;17.00;99.90;;;;;;4162014;28;20087;-60
2023/07/29 02:43:36;;;;;;;10.50;4.82;;;17.00;99.90;;;;;;4161456;28;20049;-61
2023/07/29 02:45:37;;;;;;;7.25;3.83;;;17.00;99.90;;;;;;4161423;28;20026;-64
2023/07/29 02:47:38;;;;;;;11.13;4.50;;;17.00;99.90;;;;;;4162203;28;20096;-60
2023/07/29 02:49:39;;;;;;;10.88;4.53;;;17.00;99.90;;;;;;4161005;28;20042;-61
2023/07/29 02:51:40;;;;;;;6.10;4.00;;;17.00;99.90;;;;;;4162410;28;20163;-60
2023/07/29 02:53:42;;;;;;;4.65;3.47;;;17.00;99.90;;;;;;4161104;28;20535;-61
2023/07/29 02:55:43;;;;;;;7.63;3.33;;;17.00;99.90;;;;;;4162021;28;20399;-64
2023/07/29 02:57:44;;;;;;;5.40;4.00;;;17.10;99.90;;;;;;4160789;28;20034;-60
2023/07/29 02:59:45;;;;;;;7.10;3.85;;;17.10;99.90;;;;;;4161981;28;20115;-59
2023/07/29 03:01:47;;;;;;;6.88;3.53;;;17.10;99.90;;;;;;4159524;28;20025;-60
2023/07/29 03:03:48;;;;;;;5.93;3.20;;;17.10;99.90;;;;;;4162058;28;20539;-60
2023/07/29 03:05:49;;;;;;;9.18;3.20;;;17.10;99.90;;;;;;4160500;28;20033;-59
2023/07/29 03:07:50;;;;;;;6.82;2.90;;;17.10;99.90;;;;;;4161808;28;20037;-61
2023/07/29 03:09:51;;;;;;;6.60;3.40;;;17.10;99.90;;;;;;4160895;28;20071;-61
2023/07/29 03:11:54;;;;;;;5.82;2.80;;;17.20;99.90;;;;;;4161791;28;20477;-60
2023/07/29 03:13:56;;;;;;;7.30;3.47;;;17.20;99.90;;;;;;4161256;28;20444;-61
2023/07/29 03:16:17;;;;;;;6.55;3.40;;;17.20;99.90;;;;;;4161057;28;20081;-61
2023/07/29 03:18:18;;;;;;;6.78;3.28;;;17.40;99.90;;;;;;4157703;28;20467;-61
2023/07/29 03:20:20;;;;;;;4.43;3.00;;;17.40;99.90;;;;;;4160743;28;20080;-60
2023/07/29 03:22:21;;;;;;;10.93;3.40;;;17.50;99.90;;;;;;4161165;28;20041;-61
2023/07/29 03:24:22;;;;;;;5.68;2.85;;;17.70;99.90;;;;;;4160648;28;20099;-59
2023/07/29 03:26:23;;;;;;;19.13;3.65;;;17.80;99.90;;;;;;4159893;28;20460;-61
2023/07/29 03:28:27;;;;;;;5.53;2.65;;;18.00;99.90;;;;;;4159265;28;20033;-58
2023/07/29 03:30:28;;;;;;;8.93;2.50;;;18.20;99.90;;;;;;4161375;28;20107;-62
2023/07/29 03:32:29;;;;;;;4.43;2.28;;;18.30;99.90;;;;;;4160155;28;20025;-65
2023/07/29 03:34:31;;;;;;;3.20;2.30;;;18.20;99.90;;;;;;4160179;28;20667;-61
2023/07/29 03:36:32;;;;;;;2.85;2.17;;;17.90;99.90;;;;;;4160399;28;20022;-62
2023/07/29 03:38:35;;;;;;;4.75;2.40;;;17.70;99.90;;;;;;4161554;28;20462;-61
2023/07/29 03:40:36;;;;;;;6.68;2.38;;;17.40;99.90;;;;;;4159953;28;20045;-68
2023/07/29 03:42:37;;;;;;;6.65;3.10;;;17.10;99.90;;;;;;4162147;28;20068;-65
2023/07/29 03:44:39;;;;;;;6.65;2.92;;;16.90;99.90;;;;;;4160520;28;20057;-61
2023/07/29 03:46:40;;;;;;;4.35;3.05;;;16.90;99.90;;;;;;4160986;28;20474;-60
2023/07/29 03:48:41;;;;;;;6.25;2.90;;;16.90;99.90;;;;;;4160646;28;20025;-60
2023/07/29 03:50:42;;;;;;;9.52;3.38;;;16.90;99.90;;;;;;4160881;28;20037;-62
2023/07/29 03:52:43;;;;;;;6.55;3.85;;;16.80;99.90;;;;;;4160960;28;20037;-61
2023/07/29 03:54:45;;;;;;;9.80;4.25;;;16.80;99.90;;;;;;4159789;28;20095;-60
2023/07/29 03:56:46;;;;;;;7.70;4.30;;;16.70;99.90;;;;;;4160978;28;20083;-61
2023/07/29 03:58:50;;;;;;;5.30;3.53;;;16.70;99.90;;;;;;4160146;28;20034;-60
2023/07/29 04:00:51;;;;;;;9.15;4.88;;;16.60;99.90;;;;;;4161051;28;20087;-66
2023/07/29 04:02:52;;;;;;;7.85;4.20;;;16.50;99.90;;;;;;4159450;28;20464;-63
2023/07/29 04:04:53;;;;;;;9.82;5.30;;;16.40;99.90;;;;;;4160825;28;20037;-65
2023/07/29 04:06:54;;;;;;;9.52;4.97;;;16.40;99.90;;;;;;4159950;28;20033;-64
2023/07/29 04:08:55;;;;;;;9.45;5.45;;;16.40;99.90;;;;;;4160774;28;20025;-60
2023/07/29 04:10:56;;;;;;;9.63;5.15;;;16.40;99.90;;;;;;4160008;28;20049;-60
2023/07/29 04:12:58;;;;;;;17.33;4.97;;;16.50;99.90;;;;;;4159054;28;20091;-63
2023/07/29 04:14:59;;;;;;;10.23;5.90;;;16.80;99.90;;;;;;4159790;28;20091;-66
2023/07/29 04:17:00;;;;;;;8.20;4.93;;;17.20;99.90;;;;;;4160895;28;20367;-64
2023/07/29 04:19:01;;;;;;;8.38;4.95;;;17.70;99.90;;;;;;4160119;28;20038;-58
2023/07/29 04:21:02;;;;;;;12.52;5.93;;;18.00;99.90;;;;;;4160441;28;20026;-62
2023/07/29 04:23:03;;;;;;;8.55;4.93;;;18.30;99.90;;;;;;4161498;28;20478;-59
2023/07/29 04:25:05;;;;;;;6.53;4.55;;;18.60;99.90;;;;;;4166341;28;20517;-67
2023/07/29 04:27:06;;;;;;;8.63;4.35;;;18.60;99.90;;;;;;4164240;28;20028;-64
2023/07/29 04:29:07;;;;;;;11.30;4.78;;;18.50;99.90;;;;;;4176170;28;20033;-66
2023/07/29 04:31:08;;;;;;;7.78;4.40;;;18.80;99.90;;;;;;4168780;28;20093;-65
2023/07/29 04:33:09;;;;;;;7.57;4.32;;;19.40;99.90;;;;;;4159300;28;20037;-61
2023/07/29 04:35:10;;;;;;;8.23;4.20;;;20.00;99.90;;;;;;4161048;28;20088;-60
2023/07/29 04:37:12;;;;;;;8.75;5.10;;;20.20;99.90;;;;;;4159332;28;20021;-59
2023/07/29 04:39:13;;;;;;;8.07;4.53;;;20.30;99.90;;;;;;4160760;28;20045;-58
2023/07/29 04:41:14;;;;;;;8.20;4.03;;;20.20;99.90;;;;;;4159749;28;20034;-59
2023/07/29 04:43:15;;;;;;;10.02;5.28;;;20.40;99.90;;;;;;4161233;28;20029;-60
2023/07/29 04:45:16;;;;;;;11.20;4.35;;;20.70;99.90;;;;;;4159013;28;20057;-59
2023/07/29 04:47:17;;;;;;;10.70;4.90;;;21.00;99.90;;;;;;4160782;28;20053;-60
2023/07/29 04:49:19;;;;;;;7.82;3.80;;;20.90;99.90;;;;;;4159729;28;20972;-57
2023/07/29 04:51:20;;;;;;;9.57;4.65;;;20.90;99.90;;;;;;4160263;28;20442;-60
2023/07/29 04:53:21;;;;;;;8.73;4.47;;;21.00;99.90;;;;;;4159304;28;20038;-59
2023/07/29 04:55:22;;;;;;;7.38;3.85;;;20.90;99.90;;;;;;4159859;28;20140;-60
2023/07/29 04:57:23;;;;;;;7.07;3.83;;;21.00;99.90;;;;;;4160385;28;20497;-58
2023/07/29 04:59:25;;;;;;;9.20;4.07;;;21.10;99.90;;;;;;4159240;28;20025;-59
2023/07/29 05:01:26;;;;;;;9.30;4.15;;;21.20;99.90;;;;;;4160073;28;20132;-60
2023/07/29 05:03:27;;;;;;;7.28;4.13;;;21.30;99.90;;;;;;4159498;28;20444;-59
2023/07/29 05:05:28;;;;;;;10.88;4.57;;;21.20;99.90;;;;;;4160463;28;20029;-60
2023/07/29 05:07:29;;;;;;;8.70;4.10;;;21.20;99.90;;;;;;4162441;28;20091;-59
2023/07/29 05:09:30;;;;;;;6.25;3.85;;;21.20;99.90;;;;;;4163287;28;20072;-62
2023/07/29 05:11:31;;;;;;;7.55;3.78;;;21.30;99.90;;;;;;4162080;28;20034;-60
2023/07/29 05:13:32;;;;;;;6.60;3.60;;;21.10;99.90;;;;;;4163964;28;20127;-58
2023/07/29 05:15:33;;;;;;;11.00;3.90;;;20.90;99.90;;;;;;4162297;28;20041;-58
2023/07/29 05:17:35;;;;;;;4.75;3.13;;;20.90;99.90;;;;;;4163100;28;20470;-59
2023/07/29 05:19:36;;;;;;;6.82;3.20;;;20.80;99.90;;;;;;4162342;28;20033;-59
2023/07/29 05:21:39;;;;;;;6.47;3.78;;;20.70;99.90;;;;;;4162836;28;20087;-63
2023/07/29 05:23:40;;;;;;;3.35;2.90;;;20.60;99.90;;;;;;4162812;28;20331;-58
2023/07/29 05:25:41;;;;;;;4.85;2.55;;;20.80;99.90;;;;;;4162410;28;20111;-59
2023/07/29 05:27:42;;;;;;;3.05;2.15;;;21.10;99.90;;;;;;4162794;28;20083;-60
2023/07/29 05:29:43;;;;;;;4.03;2.38;;;21.30;99.90;;;;;;4162226;28;20083;-56
2023/07/29 05:31:44;;;;;;;7.65;2.90;;;21.60;99.90;;;;;;4163310;28;20056;-57
2023/07/29 05:33:45;;;;;;;5.75;2.85;;;21.90;99.90;;;;;;4161972;28;20416;-59
2023/07/29 05:35:47;;;;;;;6.25;2.55;;;22.10;99.90;;;;;;4163187;28;20042;-59
2023/07/29 05:37:48;;;;;;;5.43;2.85;;;22.20;99.90;;;;;;4161861;28;20029;-59
2023/07/29 05:39:49;;;;;;;3.75;2.90;;;22.50;99.90;;;;;;4163217;28;20393;-57
2023/07/29 05:41:50;;;;;;;7.00;2.75;;;22.80;99.90;;;;;;4161884;28;20045;-59
2023/07/29 05:43:51;;;;;;;4.38;2.15;;;22.70;99.90;;;;;;4163195;28;20045;-62
2023/07/29 05:45:53;;;;;;;4.00;2.20;;;22.60;99.90;;;;;;4161862;28;20103;-58
2023/07/29 05:47:54;;;;;;;5.97;2.13;;;22.80;99.90;;;;;;4162298;28;20477;-59
2023/07/29 05:49:55;;;;;;;4.80;2.15;;;22.90;99.90;;;;;;4161301;28;20041;-63
2023/07/29 05:51:56;;;;;;;12.25;2.42;;;23.00;99.90;;;;;;4162295;28;20417;-60
2023/07/29 05:53:57;;;;;;;4.55;2.20;;;23.20;99.90;;;;;;4162221;28;20049;-65
2023/07/29 05:55:58;;;;;;;5.88;2.38;;;23.30;99.90;;;;;;4161600;28;20057;-60
2023/07/29 05:57:59;;;;;;;6.97;2.75;;;23.60;99.90;;;;;;4162225;28;20076;-60
2023/07/29 06:00:00;;;;;;;7.15;2.50;;;23.80;99.90;;;;;;4161870;28;20469;-62
2023/07/29 06:02:02;;;;;;;5.05;2.35;;;24.10;99.90;;;;;;4162678;28;20393;-59
2023/07/29 06:04:03;;;;;;;5.95;2.20;;;24.40;99.90;;;;;;4161804;28;20061;-60
2023/07/29 06:06:04;;;;;;;9.25;2.50;;;24.80;99.90;;;;;;4162693;28;20033;-60
2023/07/29 06:08:05;;;;;;;6.95;2.38;;;24.30;99.90;;;;;;4161403;28;20448;-60
2023/07/29 06:10:08;;;;;;;4.15;2.53;;;23.80;99.90;;;;;;4162607;28;20079;-60
2023/07/29 06:12:09;;;;;;;7.03;2.63;;;23.80;99.90;;;;;;4159889;28;20389;-58
2023/07/29 06:14:10;;;;;;;5.63;2.75;;;23.50;99.90;;;;;;4164239;28;20632;-61
2023/07/29 06:16:11;;;;;;;5.63;2.63;;;23.30;99.90;;;;;;4173202;28;20079;-63
2023/07/29 06:18:12;;;;;;;6.15;2.40;;;23.20;99.90;;;;;;4166796;28;20175;-60
2023/07/29 06:20:13;;;;;;;3.28;1.60;;;23.20;99.90;;;;;;4165731;28;20025;-59
2023/07/29 06:22:15;;;;;;;3.72;2.17;;;22.70;99.90;;;;;;4176859;28;20037;-60
2023/07/29 06:24:16;;;;;;;3.00;2.03;;;22.40;99.90;;;;;;4164103;28;20103;-58
2023/07/29 06:26:17;;;;;;;5.55;2.28;;;22.30;99.90;;;;;;4165062;28;20107;-58
2023/07/29 06:28:18;;;;;;;5.22;2.20;;;22.40;99.90;;;;;;4177983;28;20082;-60
2023/07/29 06:30:19;;;;;;;2.92;2.30;;;22.40;99.90;;;;;;4177206;28;20106;-60
2023/07/29 06:32:20;;;;;;;4.28;2.20;;;22.80;99.90;;;;;;4150870;28;20030;-59
2023/07/29 06:34:22;;;;;;;6.22;2.55;;;23.20;99.90;;;;;;4160174;28;20049;-58
2023/07/29 06:36:23;;;;;;;3.88;2.20;;;23.30;99.90;;;;;;4162342;28;20416;-61
2023/07/29 06:38:24;;;;;;;8.05;2.45;;;23.40;99.90;;;;;;4145638;28;20030;-58
2023/07/29 06:40:25;;;;;;;4.55;2.40;;;23.30;99.90;;;;;;4155844;28;21069;-58
2023/07/29 06:42:26;;;;;;;8.23;2.53;;;23.50;99.90;;;;;;4161073;28;20034;-61
2023/07/29 06:44:27;;;;;;;4.22;2.33;;;23.80;99.90;;;;;;4162611;28;20555;-60
2023/07/29 06:46:29;;;;;;;7.90;2.47;;;23.90;99.90;;;;;;4160688;28;20029;-59
2023/07/29 06:48:30;;;;;;;2.42;2.10;;;24.20;99.90;;;;;;4161995;28;20087;-59
2023/07/29 06:50:31;;;;;;;5.43;2.67;;;24.30;99.90;;;;;;4145897;28;20014;-59
2023/07/29 06:52:32;;;;;;;3.53;2.50;;;24.50;99.90;;;;;;4175209;28;20025;-59
2023/07/29 06:54:33;;;;;;;4.90;2.72;;;24.60;99.90;;;;;;4177663;28;20037;-58
2023/07/29 06:56:35;;;;;;;3.60;1.65;;;24.50;99.90;;;;;;4162126;28;20079;-59
2023/07/29 06:58:36;;;;;;;5.50;2.30;;;24.30;99.90;;;;;;4161049;28;20041;-59
2023/07/29 07:00:37;;;;;;;3.83;2.13;;;24.30;99.90;;;;;;4160371;28;20119;-58
2023/07/29 07:02:38;;;;;;;7.25;2.72;;;24.40;99.90;;;;;;4161495;28;20033;-60
2023/07/29 07:04:39;;;;;;;4.18;1.77;;;24.50;99.90;;;;;;4151568;28;20050;-60
2023/07/29 07:06:40;;;;;;;6.18;2.35;;;24.80;99.90;;;;;;4154544;28;20069;-59
2023/07/29 07:08:41;;;;;;;2.33;2.10;;;24.60;99.90;;;;;;4160567;28;20564;-59
2023/07/29 07:10:42;;;;;;;4.80;2.22;;;24.50;99.90;;;;;;4161197;28;20087;-61
2023/07/29 07:12:44;;;;;;;5.32;2.10;;;24.60;99.90;;;;;;4160686;28;20037;-60
2023/07/29 07:14:45;;;;;;;5.70;2.05;;;24.80;99.90;;;;;;4161902;28;20079;-58
2023/07/29 07:16:46;;;;;;;6.18;2.33;;;24.80;99.90;;;;;;4160133;28;20037;-57
2023/07/29 07:18:47;;;;;;;3.38;2.38;;;24.60;99.90;;;;;;4161520;28;20045;-59
2023/07/29 07:20:51;;;;;;;4.15;1.60;;;24.70;99.90;;;;;;4160357;28;20445;-62
2023/07/29 07:22:52;;;;;;;4.07;1.77;;;24.90;99.90;;;;;;4160950;28;20482;-65
2023/07/29 07:24:54;;;;;;;4.75;2.50;;;25.20;99.90;;;;;;4160749;28;20049;-60
2023/07/29 07:26:55;;;;;;;4.78;1.83;;;25.30;99.90;;;;;;4159957;28;20033;-61
2023/07/29 07:28:56;;;;;;;6.18;1.83;;;25.50;99.90;;;;;;4154036;28;20042;-56
2023/07/29 07:30:57;;;;;;;4.40;2.03;;;25.80;99.90;;;;;;4171266;28;20021;-62
2023/07/29 07:32:58;;;;;;;2.70;2.00;;;26.00;99.90;;;;;;4160998;28;20041;-64
2023/07/29 07:34:59;;;;;;;3.33;1.70;;;25.90;99.90;;;;;;4158849;28;20041;-62
2023/07/29 07:37:01;;;;;;;1.77;1.58;;;26.00;99.90;;;;;;4160292;28;20103;-59
2023/07/29 07:39:02;;;;;;;2.72;1.92;;;25.90;99.90;;;;;;4160578;28;20087;-62
2023/07/29 07:41:03;;;;;;;2.38;1.58;;;25.80;99.90;;;;;;4160451;28;20456;-61
2023/07/29 07:43:04;;;;;;;3.38;1.98;;;25.80;99.90;;;;;;4159923;28;20029;-60
2023/07/29 07:45:05;;;;;;;4.43;1.90;;;25.80;99.90;;;;;;4159889;28;20119;-60
2023/07/29 07:47:07;;;;;;;2.20;1.88;;;25.70;99.90;;;;;;4159247;28;20087;-60
2023/07/29 07:49:08;;;;;;;3.58;1.45;;;25.90;99.90;;;;;;4160510;28;20053;-58
2023/07/29 07:51:13;;;;;;;4.97;1.80;;;26.10;99.90;;;;;;4159755;28;20033;-59
2023/07/29 07:53:14;;;;;;;1.83;1.65;;;26.30;99.90;;;;;;4160713;28;20033;-63
2023/07/29 07:55:15;;;;;;;6.78;1.98;;;26.40;99.90;;;;;;4160532;28;20046;-59
2023/07/29 07:57:16;;;;;;;3.28;1.73;;;26.40;99.90;;;;;;4160468;28;20099;-57
2023/07/29 07:59:17;;;;;;;1.85;1.75;;;26.30;99.90;;;;;;4159637;28;20472;-59
2023/07/29 08:01:18;;;;;;;3.22;1.70;;;26.30;99.90;;;;;;4159720;28;20068;-61
2023/07/29 08:03:19;;;;;;;4.72;1.85;;;26.50;99.90;;;;;;4160035;28;20087;-60
2023/07/29 08:05:20;;;;;;;3.05;1.90;;;26.70;99.80;;;;;;4159403;28;20041;-61
2023/07/29 08:07:21;;;;;;;2.60;1.85;;;26.70;99.60;;;;;;4158974;28;20037;-65
2023/07/29 08:09:23;;;;;;;6.53;2.78;;;26.70;99.50;;;;;;4159657;28;20088;-60
2023/07/29 08:11:24;;;;;;;5.75;1.67;;;26.70;99.40;;;;;;4160948;28;20523;-64
2023/07/29 08:13:25;;;;;;;5.07;1.90;;;26.60;99.30;;;;;;4159291;28;20355;-62
2023/07/29 08:15:26;;;;;;;4.65;1.90;;;26.50;99.50;;;;;;4159979;28;20060;-58
2023/07/29 08:17:27;;;;;;;2.65;1.85;;;26.40;99.70;;;;;;4159264;28;20126;-62
2023/07/29 08:19:29;;;;;;;3.03;1.63;;;26.60;99.50;;;;;;4160888;28;20408;-64
2023/07/29 08:21:30;;;;;;;4.00;2.17;;;26.70;99.40;;;;;;4158642;28;20551;-60
2023/07/29 08:23:32;;;;;;;2.28;1.67;;;26.80;99.20;;;;;;4161023;28;20049;-67
2023/07/29 08:25:34;;;;;;;3.53;1.67;;;26.90;99.00;;;;;;4159773;28;20154;-69
2023/07/29 08:27:35;;;;;;;3.00;1.77;;;27.20;98.50;;;;;;4160073;28;20025;-68
2023/07/29 08:29:36;;;;;;;1.75;1.58;;;27.20;98.30;;;;;;4160323;28;20025;-62
2023/07/29 08:31:37;;;;;;;4.97;2.17;;;27.00;98.30;;;;;;4159918;28;20045;-72
2023/07/29 08:33:38;;;;;;;3.80;2.38;;;26.90;98.30;;;;;;4158945;28;20037;-78
2023/07/29 08:35:39;;;;;;;3.60;2.08;;;26.70;98.40;;;;;;4142981;28;20423;-60
2023/07/29 08:37:40;;;;;;;3.55;1.92;;;26.80;98.50;;;;;;4149295;28;20022;-66
2023/07/29 08:39:41;;;;;;;3.17;2.13;;;26.70;98.40;;;;;;4159122;28;20440;-71
2023/07/29 08:42:04;;;;;;;5.60;2.40;;;26.70;98.40;;;;;;4162825;28;20041;-66
2023/07/29 08:44:25;;;;;;;2.60;1.80;;;26.90;97.90;;;;;;4163252;28;20056;-59
2023/07/29 08:46:28;;;;;;;3.97;2.33;;;26.90;98.00;;;;;;4163499;28;20045;-70
2023/07/29 08:48:49;;;;;;;1.42;1.27;;;26.90;97.80;;;;;;4162984;28;20095;-68
2023/07/29 08:50:52;;;;;;;3.08;1.98;;;26.80;97.20;;;;;;4161512;28;20076;-58
2023/07/29 08:52:54;;;;;;;4.78;1.50;;;26.70;97.70;;;;;;4163163;28;20022;-70
2023/07/29 08:54:56;;;;;;;3.00;2.00;;;26.60;97.70;;;;;;4163687;28;20045;-68
2023/07/29 08:56:57;;;;;;;2.75;1.80;;;26.60;97.60;;;;;;4161118;28;20045;-62
2023/07/29 08:59:01;;;;;;;1.92;1.50;;;26.60;97.70;;;;;;4163634;28;20037;-69
2023/07/29 09:01:03;;;;;;;3.85;1.67;;;26.60;97.80;;;;;;4162618;28;20025;-69
2023/07/29 09:03:06;;;;;;;5.13;1.50;;;26.60;97.80;;;;;;4163552;28;20467;-70
2023/07/29 09:05:08;;;;;;;9.63;1.52;;;26.70;97.60;;;;;;4162269;28;20076;-66
2023/07/29 09:07:10;;;;;;;8.18;1.70;;;26.90;97.70;;;;;;4163287;28;20440;-67
2023/07/29 09:09:11;;;;;;;3.22;1.83;;;27.10;97.40;;;;;;4161078;28;20025;-60
2023/07/29 09:11:16;;;;;;;5.10;1.60;;;27.10;97.30;;;;;;4162943;28;20041;-62
2023/07/29 09:13:17;;;;;;;2.53;1.95;;;27.10;97.50;;;;;;4162002;28;20458;-62
2023/07/29 09:15:29;;;;;;;3.78;1.98;;;27.20;97.10;;;;;;4163015;28;20083;-60
2023/07/29 09:17:34;;;;;;;3.33;1.70;;;27.20;96.80;;;;;;4162252;28;20025;-62
2023/07/29 09:19:35;;;;;;;3.80;1.58;;;27.40;96.60;;;;;;4162708;28;20091;-62
2023/07/29 09:21:39;;;;;;;3.53;1.80;;;27.60;96.60;;;;;;4162491;28;20021;-60
2023/07/29 09:23:42;;;;;;;3.78;2.47;;;27.70;96.50;;;;;;4162373;28;20021;-62
2023/07/29 09:25:47;;;;;;;3.85;1.73;;;27.70;96.30;;;;;;4162520;28;20037;-64
2023/07/29 09:27:48;;;;;;;2.03;1.40;;;27.60;96.30;;;;;;4161975;28;20018;-58
2023/07/29 09:29:49;;;;;;;2.25;1.80;;;27.50;96.30;;;;;;4162746;28;20042;-61
2023/07/29 09:31:50;;;;;;;4.35;1.92;;;27.40;96.20;;;;;;4161869;28;20123;-65
2023/07/29 09:33:59;;;;;;;2.45;2.00;;;27.30;96.40;;;;;;4163098;28;20046;-60
2023/07/29 09:36:00;;;;;;;3.80;1.85;;;27.40;96.50;;;;;;4145129;28;20100;-62
2023/07/29 09:38:03;;;;;;;2.25;1.90;;;27.40;96.40;;;;;;4146456;28;20034;-62
2023/07/29 09:40:06;;;;;;;3.05;1.70;;;27.40;96.40;;;;;;4145501;28;20046;-68
2023/07/29 09:42:17;;;;;;;2.65;1.70;;;27.40;96.30;;;;;;4146904;28;20092;-66
2023/07/29 09:44:18;;;;;;;2.20;1.88;;;27.30;96.40;;;;;;4161889;28;20029;-64
2023/07/29 09:46:23;;;;;;;3.05;1.30;;;27.20;96.70;;;;;;4162943;28;20068;-59
2023/07/29 09:48:24;;;;;;;3.95;1.88;;;27.30;96.70;;;;;;4161193;28;20096;-59
2023/07/29 09:50:26;;;;;;;1.42;1.33;;;27.40;96.60;;;;;;4162654;28;20160;-59
2023/07/29 09:52:28;;;;;;;1.70;1.60;;;27.60;96.60;;;;;;4160464;28;20114;-59
2023/07/29 09:54:31;;;;;;;4.20;1.60;;;27.50;96.40;;;;;;4162821;28;20030;-60
2023/07/29 09:56:32;;;;;;;4.38;1.20;;;27.70;96.40;;;;;;4161277;28;20101;-63
2023/07/29 09:58:35;;;;;;;2.13;1.70;;;27.40;96.50;;;;;;4162099;28;20037;-62
2023/07/29 10:00:38;;;;;;;2.97;1.50;;;27.30;96.70;;;;;;4161503;28;20079;-68
2023/07/29 10:02:43;;;;;;;4.40;1.75;;;27.20;96.90;;;;;;4161605;28;20025;-63
2023/07/29 10:04:46;;;;;;;3.25;1.55;;;27.20;96.90;;;;;;4161741;28;20493;-60
2023/07/29 10:06:47;;;;;;;2.80;1.35;;;27.30;97.10;;;;;;4161082;28;20045;-61
2023/07/29 10:08:50;;;;;;;4.05;1.33;;;27.50;96.80;;;;;;4161927;28;20034;-61
2023/07/29 10:10:52;;;;;;;2.45;1.60;;;27.50;96.80;;;;;;4161213;28;20038;-66
2023/07/29 10:12:54;;;;;;;10.55;1.85;;;27.60;96.70;;;;;;4162068;28;20029;-60
2023/07/29 10:14:59;;;;;;;4.85;1.48;;;27.70;96.70;;;;;;4162229;28;20447;-68
2023/07/29 10:17:00;;;;;;;3.60;1.67;;;28.00;96.60;;;;;;4162830;28;20412;-61
2023/07/29 10:19:02;;;;;;;2.20;1.50;;;28.10;96.50;;;;;;4161369;28;20536;-61
2023/07/29 10:21:04;;;;;;;9.73;4.85;;;28.00;96.50;;;;;;4162573;28;20045;-62
2023/07/29 10:23:08;;;;;;;6.50;2.72;;;28.00;96.60;;;;;;4160781;28;20093;-60
2023/07/29 10:25:21;;;;;;;3.40;1.60;;;28.10;96.60;;;;;;4162119;28;20030;-62
2023/07/29 10:27:26;;;;;;;3.05;1.30;;;28.00;96.60;;;;;;4160132;28;20072;-61
2023/07/29 10:29:34;;;;;;;5.70;2.85;;;28.20;96.60;;;;;;4162319;28;20038;-62
2023/07/29 10:31:36;;;;;;;3.40;1.50;;;28.00;96.50;;;;;;4160586;28;20045;-60
2023/07/29 10:33:38;;;;;;;7.78;3.70;;;28.00;96.50;;;;;;4162039;28;20029;-61
2023/07/29 10:35:40;;;;;;;6.13;3.67;;;28.10;96.50;;;;;;4161075;28;20029;-61